sensor_id;sensor_type;location;lat;lon;timestamp;pressure;altitude;pressure_sealevel;temperature;humidity
3598;BME280;1813;52.016;8.714;2023-03-04T00:01:28;-16261.94;;;-139.71;61.34
3598;BME280;1813;52.016;8.714;2023-03-04T00:04:01;-16261.94;;;-139.71;61.43
3598;BME280;1813;52.016;8.714;2023-03-04T00:06:35;-16261.94;;;-139.71;61.43
3598;BME280;1813;52.016;8.714;2023-03-04T00:09:09;-16261.94;;;-139.71;61.54
3598;BME280;1813;52.016;8.714;2023-03-04T00:11:48;-16261.94;;;-139.71;61.67
3598;BME280;1813;52.016;8.714;2023-03-04T00:14:22;-16261.94;;;-139.71;61.59
3598;BME280;1813;52.016;8.714;2023-03-04T00:16:56;-16261.94;;;-139.71;61.81
3598;BME280;1813;52.016;8.714;2023-03-04T00:19:30;-16261.94;;;-139.71;61.76
3598;BME280;1813;52.016;8.714;2023-03-04T00:22:04;-16261.94;;;-139.71;61.69
3598;BME280;1813;52.016;8.714;2023-03-04T00:24:38;-16261.94;;;-139.71;61.72
3598;BME280;1813;52.016;8.714;2023-03-04T00:27:17;-16261.94;;;-139.71;61.58
3598;BME280;1813;52.016;8.714;2023-03-04T00:29:51;-16261.94;;;-139.71;61.62
3598;BME280;1813;52.016;8.714;2023-03-04T00:32:25;-16261.94;;;-139.71;61.81
3598;BME280;1813;52.016;8.714;2023-03-04T00:34:59;-16261.94;;;-139.71;61.84
3598;BME280;1813;52.016;8.714;2023-03-04T00:37:33;-16261.94;;;-139.71;61.85
3598;BME280;1813;52.016;8.714;2023-03-04T00:40:10;-16261.94;;;-139.71;61.76
3598;BME280;1813;52.016;8.714;2023-03-04T00:42:46;-16261.94;;;-139.71;61.90
3598;BME280;1813;52.016;8.714;2023-03-04T00:45:20;-16261.94;;;-139.71;61.88
3598;BME280;1813;52.016;8.714;2023-03-04T00:47:57;-16261.94;;;-139.71;61.87
3598;BME280;1813;52.016;8.714;2023-03-04T00:50:31;-16261.94;;;-139.71;61.69
3598;BME280;1813;52.016;8.714;2023-03-04T00:53:07;-16261.94;;;-139.71;61.54
3598;BME280;1813;52.016;8.714;2023-03-04T00:55:41;-16261.94;;;-139.71;61.36
3598;BME280;1813;52.016;8.714;2023-03-04T00:58:18;-16261.94;;;-139.71;61.35
3598;BME280;1813;52.016;8.714;2023-03-04T01:00:52;-16261.94;;;-139.71;61.18
3598;BME280;1813;52.016;8.714;2023-03-04T01:03:26;-16261.94;;;-139.71;61.27
3598;BME280;1813;52.016;8.714;2023-03-04T01:06:02;-16261.94;;;-139.71;61.58
3598;BME280;1813;52.016;8.714;2023-03-04T01:08:36;-16261.94;;;-139.71;61.81
3598;BME280;1813;52.016;8.714;2023-03-04T01:11:11;-16261.94;;;-139.71;61.98
3598;BME280;1813;52.016;8.714;2023-03-04T01:13:48;-16261.94;;;-139.71;61.96
3598;BME280;1813;52.016;8.714;2023-03-04T01:16:22;-16261.94;;;-139.71;62.33
3598;BME280;1813;52.016;8.714;2023-03-04T01:18:56;-16261.94;;;-139.71;62.35
3598;BME280;1813;52.016;8.714;2023-03-04T01:21:30;-16261.94;;;-139.71;62.44
3598;BME280;1813;52.016;8.714;2023-03-04T01:24:05;-16261.94;;;-139.71;62.60
3598;BME280;1813;52.016;8.714;2023-03-04T01:26:39;-16261.94;;;-139.71;62.43
3598;BME280;1813;52.016;8.714;2023-03-04T01:29:16;-16261.94;;;-139.71;62.52
3598;BME280;1813;52.016;8.714;2023-03-04T01:31:50;-16261.94;;;-139.71;62.40
3598;BME280;1813;52.016;8.714;2023-03-04T01:34:24;-16261.94;;;-139.71;62.46
3598;BME280;1813;52.016;8.714;2023-03-04T01:36:59;-16261.94;;;-139.71;62.50
3598;BME280;1813;52.016;8.714;2023-03-04T01:39:33;-16261.94;;;-139.71;62.40
3598;BME280;1813;52.016;8.714;2023-03-04T01:42:12;-16261.94;;;-139.71;62.30
3598;BME280;1813;52.016;8.714;2023-03-04T01:44:52;-16261.94;;;-139.71;62.21
3598;BME280;1813;52.016;8.714;2023-03-04T01:47:28;-16261.94;;;-139.71;62.17
3598;BME280;1813;52.016;8.714;2023-03-04T01:50:04;-16261.94;;;-139.71;62.16
3598;BME280;1813;52.016;8.714;2023-03-04T01:52:43;-16261.94;;;-139.71;62.11
3598;BME280;1813;52.016;8.714;2023-03-04T01:55:18;-16261.94;;;-139.71;61.99
3598;BME280;1813;52.016;8.714;2023-03-04T01:57:52;-16261.94;;;-139.71;62.05
3598;BME280;1813;52.016;8.714;2023-03-04T02:00:31;-16261.94;;;-139.71;61.98
3598;BME280;1813;52.016;8.714;2023-03-04T02:03:11;-16261.94;;;-139.71;61.81
3598;BME280;1813;52.016;8.714;2023-03-04T02:05:48;-16261.94;;;-139.71;61.85
3598;BME280;1813;52.016;8.714;2023-03-04T02:08:24;-16261.94;;;-139.71;61.94
3598;BME280;1813;52.016;8.714;2023-03-04T02:10:57;-16261.94;;;-139.71;62.10
3598;BME280;1813;52.016;8.714;2023-03-04T02:13:31;-16261.94;;;-139.71;62.04
3598;BME280;1813;52.016;8.714;2023-03-04T02:16:08;-16261.94;;;-139.71;62.01
3598;BME280;1813;52.016;8.714;2023-03-04T02:18:42;-16261.94;;;-139.71;62.17
3598;BME280;1813;52.016;8.714;2023-03-04T02:21:18;-16261.94;;;-139.71;62.06
3598;BME280;1813;52.016;8.714;2023-03-04T02:24:01;-16261.94;;;-139.71;61.77
3598;BME280;1813;52.016;8.714;2023-03-04T02:26:39;-16261.94;;;-139.71;61.91
3598;BME280;1813;52.016;8.714;2023-03-04T02:29:16;-16261.94;;;-139.71;62.13
3598;BME280;1813;52.016;8.714;2023-03-04T02:31:52;-16261.94;;;-139.71;62.05
3598;BME280;1813;52.016;8.714;2023-03-04T02:34:29;-16261.94;;;-139.71;61.96
3598;BME280;1813;52.016;8.714;2023-03-04T02:37:09;-16261.94;;;-139.71;62.13
3598;BME280;1813;52.016;8.714;2023-03-04T02:39:46;-16261.94;;;-139.71;62.36
3598;BME280;1813;52.016;8.714;2023-03-04T02:42:23;-16261.94;;;-139.71;62.43
3598;BME280;1813;52.016;8.714;2023-03-04T02:44:58;-16261.94;;;-139.71;62.53
3598;BME280;1813;52.016;8.714;2023-03-04T02:47:33;-16261.94;;;-139.71;62.39
3598;BME280;1813;52.016;8.714;2023-03-04T02:50:08;-16261.94;;;-139.71;62.54
3598;BME280;1813;52.016;8.714;2023-03-04T02:52:42;-16261.94;;;-139.71;62.53
3598;BME280;1813;52.016;8.714;2023-03-04T02:55:16;-16261.94;;;-139.71;62.57
3598;BME280;1813;52.016;8.714;2023-03-04T02:57:53;-16261.94;;;-139.71;62.66
3598;BME280;1813;52.016;8.714;2023-03-04T03:00:29;-16261.94;;;-139.71;62.56
3598;BME280;1813;52.016;8.714;2023-03-04T03:03:03;-16261.94;;;-139.71;62.57
3598;BME280;1813;52.016;8.714;2023-03-04T03:05:39;-16261.94;;;-139.71;62.62
3598;BME280;1813;52.016;8.714;2023-03-04T03:08:14;-16261.94;;;-139.71;62.47
3598;BME280;1813;52.016;8.714;2023-03-04T03:10:48;-16261.94;;;-139.71;62.56
3598;BME280;1813;52.016;8.714;2023-03-04T03:13:26;-16261.94;;;-139.71;62.40
3598;BME280;1813;52.016;8.714;2023-03-04T03:16:00;-16261.94;;;-139.71;62.47
3598;BME280;1813;52.016;8.714;2023-03-04T03:18:34;-16261.94;;;-139.71;62.33
3598;BME280;1813;52.016;8.714;2023-03-04T03:21:09;-16261.94;;;-139.71;62.34
3598;BME280;1813;52.016;8.714;2023-03-04T03:23:43;-16261.94;;;-139.71;62.49
3598;BME280;1813;52.016;8.714;2023-03-04T03:26:17;-16261.94;;;-139.71;62.52
3598;BME280;1813;52.016;8.714;2023-03-04T03:28:54;-16261.94;;;-139.71;62.59
3598;BME280;1813;52.016;8.714;2023-03-04T03:31:27;-16261.94;;;-139.71;62.81
3598;BME280;1813;52.016;8.714;2023-03-04T03:34:01;-16261.94;;;-139.71;62.78
3598;BME280;1813;52.016;8.714;2023-03-04T03:36:35;-16261.94;;;-139.71;62.89
3598;BME280;1813;52.016;8.714;2023-03-04T03:39:09;-16261.94;;;-139.71;62.98
3598;BME280;1813;52.016;8.714;2023-03-04T03:41:45;-16261.94;;;-139.71;63.20
3598;BME280;1813;52.016;8.714;2023-03-04T03:44:22;-16261.94;;;-139.71;63.37
3598;BME280;1813;52.016;8.714;2023-03-04T03:46:56;-16261.94;;;-139.71;63.43
3598;BME280;1813;52.016;8.714;2023-03-04T03:49:30;-16261.94;;;-139.71;63.39
3598;BME280;1813;52.016;8.714;2023-03-04T03:52:04;-16261.94;;;-139.71;63.17
3598;BME280;1813;52.016;8.714;2023-03-04T03:54:38;-16261.94;;;-139.71;63.15
3598;BME280;1813;52.016;8.714;2023-03-04T03:57:14;-16261.94;;;-139.71;63.10
3598;BME280;1813;52.016;8.714;2023-03-04T03:59:50;-16261.94;;;-139.71;63.18
3598;BME280;1813;52.016;8.714;2023-03-04T04:02:24;-16261.94;;;-139.71;63.08
3598;BME280;1813;52.016;8.714;2023-03-04T04:04:58;-16261.94;;;-139.71;63.09
3598;BME280;1813;52.016;8.714;2023-03-04T04:07:32;-16261.94;;;-139.71;62.95
3598;BME280;1813;52.016;8.714;2023-03-04T04:10:07;-16261.94;;;-139.71;62.86
3598;BME280;1813;52.016;8.714;2023-03-04T04:12:41;-16261.94;;;-139.71;62.86
3598;BME280;1813;52.016;8.714;2023-03-04T04:15:17;-16261.94;;;-139.71;62.84
3598;BME280;1813;52.016;8.714;2023-03-04T04:17:51;-16261.94;;;-139.71;62.88
3598;BME280;1813;52.016;8.714;2023-03-04T04:20:25;-16261.94;;;-139.71;62.76
3598;BME280;1813;52.016;8.714;2023-03-04T04:22:59;-16261.94;;;-139.71;62.73
3598;BME280;1813;52.016;8.714;2023-03-04T04:25:33;-16261.94;;;-139.71;62.72
3598;BME280;1813;52.016;8.714;2023-03-04T04:28:07;-16261.94;;;-139.71;62.72
3598;BME280;1813;52.016;8.714;2023-03-04T04:30:43;-16261.94;;;-139.71;62.55
3598;BME280;1813;52.016;8.714;2023-03-04T04:33:17;-16261.94;;;-139.71;62.78
3598;BME280;1813;52.016;8.714;2023-03-04T04:35:52;-16261.94;;;-139.71;62.91
3598;BME280;1813;52.016;8.714;2023-03-04T04:38:25;-16261.94;;;-139.71;63.09
3598;BME280;1813;52.016;8.714;2023-03-04T04:40:59;-16261.94;;;-139.71;63.10
3598;BME280;1813;52.016;8.714;2023-03-04T04:43:33;-16261.94;;;-139.71;63.10
3598;BME280;1813;52.016;8.714;2023-03-04T04:46:10;-16261.94;;;-139.71;63.17
3598;BME280;1813;52.016;8.714;2023-03-04T04:48:44;-16261.94;;;-139.71;63.23
3598;BME280;1813;52.016;8.714;2023-03-04T04:51:17;-16261.94;;;-139.71;63.21
3598;BME280;1813;52.016;8.714;2023-03-04T04:53:51;-16261.94;;;-139.71;63.28
3598;BME280;1813;52.016;8.714;2023-03-04T04:56:25;-16261.94;;;-139.71;63.29
3598;BME280;1813;52.016;8.714;2023-03-04T04:59:02;-16261.94;;;-139.71;63.45
3598;BME280;1813;52.016;8.714;2023-03-04T05:01:39;-16261.94;;;-139.71;63.60
3598;BME280;1813;52.016;8.714;2023-03-04T05:04:13;-16261.94;;;-139.71;63.52
3598;BME280;1813;52.016;8.714;2023-03-04T05:06:50;-16261.94;;;-139.71;63.89
3598;BME280;1813;52.016;8.714;2023-03-04T05:09:23;-16261.94;;;-139.71;64.08
3598;BME280;1813;52.016;8.714;2023-03-04T05:11:57;-16261.94;;;-139.71;64.27
3598;BME280;1813;52.016;8.714;2023-03-04T05:14:31;-16261.94;;;-139.71;64.38
3598;BME280;1813;52.016;8.714;2023-03-04T05:17:08;-16261.94;;;-139.71;64.55
3598;BME280;1813;52.016;8.714;2023-03-04T05:19:42;-16261.94;;;-139.71;64.76
3598;BME280;1813;52.016;8.714;2023-03-04T05:22:15;-16261.94;;;-139.71;64.93
3598;BME280;1813;52.016;8.714;2023-03-04T05:24:49;-16261.94;;;-139.71;65.13
3598;BME280;1813;52.016;8.714;2023-03-04T05:27:23;-16261.94;;;-139.71;65.30
3598;BME280;1813;52.016;8.714;2023-03-04T05:29:57;-16261.94;;;-139.71;65.30
3598;BME280;1813;52.016;8.714;2023-03-04T05:32:35;-16261.94;;;-139.71;65.53
3598;BME280;1813;52.016;8.714;2023-03-04T05:35:09;-16261.94;;;-139.71;65.65
3598;BME280;1813;52.016;8.714;2023-03-04T05:37:43;-16261.94;;;-139.71;65.46
3598;BME280;1813;52.016;8.714;2023-03-04T05:40:17;-16261.94;;;-139.71;65.66
3598;BME280;1813;52.016;8.714;2023-03-04T05:42:51;-16261.94;;;-139.71;65.53
3598;BME280;1813;52.016;8.714;2023-03-04T05:45:26;-16261.94;;;-139.71;65.78
3598;BME280;1813;52.016;8.714;2023-03-04T05:48:04;-16261.94;;;-139.71;65.91
3598;BME280;1813;52.016;8.714;2023-03-04T05:50:38;-16261.94;;;-139.71;66.32
3598;BME280;1813;52.016;8.714;2023-03-04T05:53:12;-16261.94;;;-139.71;66.65
3598;BME280;1813;52.016;8.714;2023-03-04T05:55:46;-16261.94;;;-139.71;66.63
3598;BME280;1813;52.016;8.714;2023-03-04T05:58:20;-16261.94;;;-139.71;66.91
3598;BME280;1813;52.016;8.714;2023-03-04T06:01:00;-16261.94;;;-139.71;67.20
3598;BME280;1813;52.016;8.714;2023-03-04T06:03:37;-16261.94;;;-139.71;67.51
3598;BME280;1813;52.016;8.714;2023-03-04T06:06:12;-16261.94;;;-139.71;67.92
3598;BME280;1813;52.016;8.714;2023-03-04T06:08:46;-16261.94;;;-139.71;68.37
3598;BME280;1813;52.016;8.714;2023-03-04T06:11:20;-16261.94;;;-139.71;68.61
3598;BME280;1813;52.016;8.714;2023-03-04T06:13:54;-16261.94;;;-139.71;68.86
3598;BME280;1813;52.016;8.714;2023-03-04T06:16:28;-16261.94;;;-139.71;69.03
3598;BME280;1813;52.016;8.714;2023-03-04T06:19:05;-16261.94;;;-139.71;69.19
3598;BME280;1813;52.016;8.714;2023-03-04T06:21:39;-16261.94;;;-139.71;69.21
3598;BME280;1813;52.016;8.714;2023-03-04T06:24:13;-16261.94;;;-139.71;69.47
3598;BME280;1813;52.016;8.714;2023-03-04T06:26:47;-16261.94;;;-139.71;70.04
3598;BME280;1813;52.016;8.714;2023-03-04T06:29:21;-16261.94;;;-139.71;70.26
3598;BME280;1813;52.016;8.714;2023-03-04T06:31:55;-16261.94;;;-139.71;70.54
3598;BME280;1813;52.016;8.714;2023-03-04T06:34:32;-16261.94;;;-139.71;70.82
3598;BME280;1813;52.016;8.714;2023-03-04T06:37:06;-16261.94;;;-139.71;71.24
3598;BME280;1813;52.016;8.714;2023-03-04T06:39:41;-16261.94;;;-139.71;71.59
3598;BME280;1813;52.016;8.714;2023-03-04T06:42:15;-16261.94;;;-139.71;72.07
3598;BME280;1813;52.016;8.714;2023-03-04T06:44:49;-16261.94;;;-139.71;72.44
3598;BME280;1813;52.016;8.714;2023-03-04T06:47:23;-16261.94;;;-139.71;73.01
3598;BME280;1813;52.016;8.714;2023-03-04T06:49:59;-16261.94;;;-139.71;73.36
3598;BME280;1813;52.016;8.714;2023-03-04T06:52:33;-16261.94;;;-139.71;73.78
3598;BME280;1813;52.016;8.714;2023-03-04T06:55:08;-16261.94;;;-139.71;74.14
3598;BME280;1813;52.016;8.714;2023-03-04T06:57:42;-16261.94;;;-139.71;74.43
3598;BME280;1813;52.016;8.714;2023-03-04T07:00:17;-16261.94;;;-139.71;74.69
3598;BME280;1813;52.016;8.714;2023-03-04T07:02:53;-16261.94;;;-139.71;74.75
3598;BME280;1813;52.016;8.714;2023-03-04T07:05:30;-16261.94;;;-139.71;74.77
3598;BME280;1813;52.016;8.714;2023-03-04T07:08:04;-16261.94;;;-139.71;74.78
3598;BME280;1813;52.016;8.714;2023-03-04T07:10:38;-16261.94;;;-139.71;74.91
3598;BME280;1813;52.016;8.714;2023-03-04T07:13:12;-16261.94;;;-139.71;74.89
3598;BME280;1813;52.016;8.714;2023-03-04T07:15:45;-16261.94;;;-139.71;74.84
3598;BME280;1813;52.016;8.714;2023-03-04T07:18:19;-16261.94;;;-139.71;74.93
3598;BME280;1813;52.016;8.714;2023-03-04T07:20:56;-16261.94;;;-139.71;74.77
3598;BME280;1813;52.016;8.714;2023-03-04T07:23:30;-16261.94;;;-139.71;74.72
3598;BME280;1813;52.016;8.714;2023-03-04T07:26:04;-16261.94;;;-139.71;74.74
3598;BME280;1813;52.016;8.714;2023-03-04T07:28:38;-16261.94;;;-139.71;74.72
3598;BME280;1813;52.016;8.714;2023-03-04T07:31:19;-16261.94;;;-139.71;74.56
3598;BME280;1813;52.016;8.714;2023-03-04T07:33:56;-16261.94;;;-139.71;74.57
3598;BME280;1813;52.016;8.714;2023-03-04T07:36:35;-16261.94;;;-139.71;74.51
3598;BME280;1813;52.016;8.714;2023-03-04T07:39:10;-16261.94;;;-139.71;74.71
3598;BME280;1813;52.016;8.714;2023-03-04T07:41:45;-16261.94;;;-139.71;75.03
3598;BME280;1813;52.016;8.714;2023-03-04T07:44:20;-16261.94;;;-139.71;75.11
3598;BME280;1813;52.016;8.714;2023-03-04T07:46:54;-16261.94;;;-139.71;75.14
3598;BME280;1813;52.016;8.714;2023-03-04T07:49:27;-16261.94;;;-139.71;74.99
3598;BME280;1813;52.016;8.714;2023-03-04T07:52:05;-16261.94;;;-139.71;75.11
3598;BME280;1813;52.016;8.714;2023-03-04T07:54:39;-16261.94;;;-139.71;75.22
3598;BME280;1813;52.016;8.714;2023-03-04T07:57:13;-16261.94;;;-139.71;75.12
3598;BME280;1813;52.016;8.714;2023-03-04T07:59:47;-16261.94;;;-139.71;74.94
3598;BME280;1813;52.016;8.714;2023-03-04T08:02:21;-16261.94;;;-139.71;74.97
3598;BME280;1813;52.016;8.714;2023-03-04T08:04:56;-16261.94;;;-139.71;75.13
3598;BME280;1813;52.016;8.714;2023-03-04T08:07:32;-16261.94;;;-139.71;75.29
3598;BME280;1813;52.016;8.714;2023-03-04T08:10:09;-16261.94;;;-139.71;75.24
3598;BME280;1813;52.016;8.714;2023-03-04T08:12:43;-16261.94;;;-139.71;75.09
3598;BME280;1813;52.016;8.714;2023-03-04T08:15:17;-16261.94;;;-139.71;74.76
3598;BME280;1813;52.016;8.714;2023-03-04T08:17:51;-16261.94;;;-139.71;74.77
3598;BME280;1813;52.016;8.714;2023-03-04T08:20:24;-16261.94;;;-139.71;74.74
3598;BME280;1813;52.016;8.714;2023-03-04T08:23:02;-16261.94;;;-139.71;74.62
3598;BME280;1813;52.016;8.714;2023-03-04T08:25:38;-16261.94;;;-139.71;74.19
3598;BME280;1813;52.016;8.714;2023-03-04T08:28:12;-16261.94;;;-139.71;74.19
3598;BME280;1813;52.016;8.714;2023-03-04T08:30:52;-16261.94;;;-139.71;74.34
3598;BME280;1813;52.016;8.714;2023-03-04T08:33:27;-16261.94;;;-139.71;74.66
3598;BME280;1813;52.016;8.714;2023-03-04T08:36:01;-16261.94;;;-139.71;75.24
3598;BME280;1813;52.016;8.714;2023-03-04T08:38:38;-16261.94;;;-139.71;75.69
3598;BME280;1813;52.016;8.714;2023-03-04T08:41:13;-16261.94;;;-139.71;75.79
3598;BME280;1813;52.016;8.714;2023-03-04T08:43:47;-16261.94;;;-139.71;76.18
3598;BME280;1813;52.016;8.714;2023-03-04T08:46:21;-16261.94;;;-139.71;76.33
3598;BME280;1813;52.016;8.714;2023-03-04T08:48:56;-16261.94;;;-139.71;76.62
3598;BME280;1813;52.016;8.714;2023-03-04T08:51:30;-16261.94;;;-139.71;77.01
3598;BME280;1813;52.016;8.714;2023-03-04T08:54:08;-16261.94;;;-139.71;77.20
3598;BME280;1813;52.016;8.714;2023-03-04T08:56:41;-16261.94;;;-139.71;77.32
3598;BME280;1813;52.016;8.714;2023-03-04T08:59:16;-16261.94;;;-139.71;77.35
3598;BME280;1813;52.016;8.714;2023-03-04T09:01:50;-16261.94;;;-139.71;77.28
3598;BME280;1813;52.016;8.714;2023-03-04T09:04:24;-16261.94;;;-139.71;77.28
3598;BME280;1813;52.016;8.714;2023-03-04T09:06:58;-16261.94;;;-139.71;77.34
3598;BME280;1813;52.016;8.714;2023-03-04T09:09:35;-16261.94;;;-139.71;77.82
3598;BME280;1813;52.016;8.714;2023-03-04T09:12:09;-16261.94;;;-139.71;78.09
3598;BME280;1813;52.016;8.714;2023-03-04T09:14:43;-16261.94;;;-139.71;78.04
3598;BME280;1813;52.016;8.714;2023-03-04T09:17:17;-16261.94;;;-139.71;77.75
3598;BME280;1813;52.016;8.714;2023-03-04T09:19:51;-16261.94;;;-139.71;77.64
3598;BME280;1813;52.016;8.714;2023-03-04T09:22:26;-16261.94;;;-139.71;77.39
3598;BME280;1813;52.016;8.714;2023-03-04T09:25:04;-16261.94;;;-139.71;77.37
3598;BME280;1813;52.016;8.714;2023-03-04T09:27:38;-16261.94;;;-139.71;77.46
3598;BME280;1813;52.016;8.714;2023-03-04T09:30:12;-16261.94;;;-139.71;77.42
3598;BME280;1813;52.016;8.714;2023-03-04T09:32:47;-16261.94;;;-139.71;77.93
3598;BME280;1813;52.016;8.714;2023-03-04T09:35:23;-16261.94;;;-139.71;77.90
3598;BME280;1813;52.016;8.714;2023-03-04T09:37:59;-16261.94;;;-139.71;77.97
3598;BME280;1813;52.016;8.714;2023-03-04T09:40:38;-16261.94;;;-139.71;78.16
3598;BME280;1813;52.016;8.714;2023-03-04T09:43:18;-16261.94;;;-139.71;78.08
3598;BME280;1813;52.016;8.714;2023-03-04T09:45:55;-16261.94;;;-139.71;78.24
3598;BME280;1813;52.016;8.714;2023-03-04T09:48:37;-16261.94;;;-139.71;78.45
3598;BME280;1813;52.016;8.714;2023-03-04T09:51:19;-16261.94;;;-139.71;78.61
3598;BME280;1813;52.016;8.714;2023-03-04T09:54:04;-16261.94;;;-139.71;78.79
3598;BME280;1813;52.016;8.714;2023-03-04T09:56:41;-16261.94;;;-139.71;79.11
3598;BME280;1813;52.016;8.714;2023-03-04T09:59:24;-16261.94;;;-139.71;79.14
3598;BME280;1813;52.016;8.714;2023-03-04T10:02:15;-16261.94;;;-139.71;79.06
3598;BME280;1813;52.016;8.714;2023-03-04T10:04:51;-16261.94;;;-139.71;78.80
3598;BME280;1813;52.016;8.714;2023-03-04T10:07:32;-16261.94;;;-139.71;78.31
3598;BME280;1813;52.016;8.714;2023-03-04T10:10:13;-16261.94;;;-139.71;77.86
3598;BME280;1813;52.016;8.714;2023-03-04T10:12:54;-16261.94;;;-139.71;77.56
3598;BME280;1813;52.016;8.714;2023-03-04T10:15:34;-16261.94;;;-139.71;77.45
3598;BME280;1813;52.016;8.714;2023-03-04T10:18:15;-16261.94;;;-139.71;77.92
3598;BME280;1813;52.016;8.714;2023-03-04T10:20:53;-16261.94;;;-139.71;78.28
3598;BME280;1813;52.016;8.714;2023-03-04T10:23:32;-16261.94;;;-139.71;78.44
3598;BME280;1813;52.016;8.714;2023-03-04T10:26:12;-16261.94;;;-139.71;78.64
3598;BME280;1813;52.016;8.714;2023-03-04T10:28:50;-16261.94;;;-139.71;77.80
3598;BME280;1813;52.016;8.714;2023-03-04T10:31:30;-16261.94;;;-139.71;77.31
3598;BME280;1813;52.016;8.714;2023-03-04T10:34:09;-16261.94;;;-139.71;76.95
3598;BME280;1813;52.016;8.714;2023-03-04T10:36:52;-16261.94;;;-139.71;75.81
3598;BME280;1813;52.016;8.714;2023-03-04T10:39:29;-16261.94;;;-139.71;74.75
3598;BME280;1813;52.016;8.714;2023-03-04T10:42:09;-16261.94;;;-139.71;74.27
3598;BME280;1813;52.016;8.714;2023-03-04T10:44:59;-16261.94;;;-139.71;74.41
3598;BME280;1813;52.016;8.714;2023-03-04T10:47:34;-16261.94;;;-139.71;75.15
3598;BME280;1813;52.016;8.714;2023-03-04T10:50:20;-16261.94;;;-139.71;75.96
3598;BME280;1813;52.016;8.714;2023-03-04T10:52:55;-16261.94;;;-139.71;76.60
3598;BME280;1813;52.016;8.714;2023-03-04T10:55:42;-16261.94;;;-139.71;76.95
3598;BME280;1813;52.016;8.714;2023-03-04T10:58:16;-16261.94;;;-139.71;77.34
3598;BME280;1813;52.016;8.714;2023-03-04T11:01:03;-16261.94;;;-139.71;77.63
3598;BME280;1813;52.016;8.714;2023-03-04T11:03:46;-16261.94;;;-139.71;78.10
3598;BME280;1813;52.016;8.714;2023-03-04T11:06:22;-16261.94;;;-139.71;78.59
3598;BME280;1813;52.016;8.714;2023-03-04T11:09:00;-16261.94;;;-139.71;79.01
3598;BME280;1813;52.016;8.714;2023-03-04T11:11:40;-16261.94;;;-139.71;79.39
3598;BME280;1813;52.016;8.714;2023-03-04T11:14:21;-16261.94;;;-139.71;79.77
3598;BME280;1813;52.016;8.714;2023-03-04T11:17:00;-16261.94;;;-139.71;79.97
3598;BME280;1813;52.016;8.714;2023-03-04T11:19:37;-16261.94;;;-139.71;80.31
3598;BME280;1813;52.016;8.714;2023-03-04T11:22:14;-16261.94;;;-139.71;80.50
3598;BME280;1813;52.016;8.714;2023-03-04T11:24:55;-16261.94;;;-139.71;80.35
3598;BME280;1813;52.016;8.714;2023-03-04T11:27:40;-16261.94;;;-139.71;80.39
3598;BME280;1813;52.016;8.714;2023-03-04T11:30:24;-16261.94;;;-139.71;80.69
3598;BME280;1813;52.016;8.714;2023-03-04T11:33:11;-16261.94;;;-139.71;80.05
3598;BME280;1813;52.016;8.714;2023-03-04T11:35:53;-16261.94;;;-139.71;78.48
3598;BME280;1813;52.016;8.714;2023-03-04T11:38:35;-16261.94;;;-139.71;76.81
3598;BME280;1813;52.016;8.714;2023-03-04T11:41:11;-16261.94;;;-139.71;75.51
3598;BME280;1813;52.016;8.714;2023-03-04T11:43:48;-16261.94;;;-139.71;74.74
3598;BME280;1813;52.016;8.714;2023-03-04T11:46:53;-16261.94;;;-139.71;74.29
3598;BME280;1813;52.016;8.714;2023-03-04T11:49:54;-16261.94;;;-139.71;74.30
3598;BME280;1813;52.016;8.714;2023-03-04T11:52:45;-16261.94;;;-139.71;74.45
3598;BME280;1813;52.016;8.714;2023-03-04T11:55:28;-16261.94;;;-139.71;74.99
3598;BME280;1813;52.016;8.714;2023-03-04T11:58:18;-16261.94;;;-139.71;75.16
3598;BME280;1813;52.016;8.714;2023-03-04T12:01:00;-16261.94;;;-139.71;74.23
3598;BME280;1813;52.016;8.714;2023-03-04T12:03:52;-16261.94;;;-139.71;73.39
3598;BME280;1813;52.016;8.714;2023-03-04T12:06:43;-16261.94;;;-139.71;72.59
3598;BME280;1813;52.016;8.714;2023-03-04T12:09:44;-16261.94;;;-139.71;71.94
3598;BME280;1813;52.016;8.714;2023-03-04T12:12:34;-16261.94;;;-139.71;71.06
3598;BME280;1813;52.016;8.714;2023-03-04T12:15:18;-16261.94;;;-139.71;70.95
3598;BME280;1813;52.016;8.714;2023-03-04T12:18:07;-16261.94;;;-139.71;71.56
3598;BME280;1813;52.016;8.714;2023-03-04T12:20:53;-16261.94;;;-139.71;70.38
3598;BME280;1813;52.016;8.714;2023-03-04T12:23:54;-16261.94;;;-139.71;68.89
3598;BME280;1813;52.016;8.714;2023-03-04T12:26:40;-16261.94;;;-139.71;67.21
3598;BME280;1813;52.016;8.714;2023-03-04T12:29:18;-16261.94;;;-139.71;66.86
3598;BME280;1813;52.016;8.714;2023-03-04T12:32:02;-16261.94;;;-139.71;66.70
3598;BME280;1813;52.016;8.714;2023-03-04T12:35:04;-16261.94;;;-139.71;66.66
3598;BME280;1813;52.016;8.714;2023-03-04T12:37:59;-16261.94;;;-139.71;66.35
3598;BME280;1813;52.016;8.714;2023-03-04T12:40:43;-16261.94;;;-139.71;66.55
3598;BME280;1813;52.016;8.714;2023-03-04T12:43:40;-16261.94;;;-139.71;66.73
3598;BME280;1813;52.016;8.714;2023-03-04T12:46:28;-16261.94;;;-139.71;66.69
3598;BME280;1813;52.016;8.714;2023-03-04T12:49:29;-16261.94;;;-139.71;66.12
3598;BME280;1813;52.016;8.714;2023-03-04T12:52:10;-16261.94;;;-139.71;65.08
3598;BME280;1813;52.016;8.714;2023-03-04T12:54:50;-16261.94;;;-139.71;64.74
3598;BME280;1813;52.016;8.714;2023-03-04T12:57:30;-16261.94;;;-139.71;62.63
3598;BME280;1813;52.016;8.714;2023-03-04T13:00:13;-16261.94;;;-139.71;61.49
3598;BME280;1813;52.016;8.714;2023-03-04T13:02:56;-16261.94;;;-139.71;60.74
3598;BME280;1813;52.016;8.714;2023-03-04T13:05:42;-16261.94;;;-139.71;62.22
3598;BME280;1813;52.016;8.714;2023-03-04T13:08:26;-16261.94;;;-139.71;63.88
3598;BME280;1813;52.016;8.714;2023-03-04T13:11:30;-16261.94;;;-139.71;64.89
3598;BME280;1813;52.016;8.714;2023-03-04T13:14:04;-16261.94;;;-139.71;66.53
3598;BME280;1813;52.016;8.714;2023-03-04T13:16:40;-16261.94;;;-139.71;67.81
3598;BME280;1813;52.016;8.714;2023-03-04T13:22:31;-16261.94;;;-139.71;68.79
3598;BME280;1813;52.016;8.714;2023-03-04T13:25:31;-16261.94;;;-139.71;68.74
3598;BME280;1813;52.016;8.714;2023-03-04T13:28:19;-16261.94;;;-139.71;67.80
3598;BME280;1813;52.016;8.714;2023-03-04T13:31:22;-16261.94;;;-139.71;66.79
3598;BME280;1813;52.016;8.714;2023-03-04T13:34:01;-16261.94;;;-139.71;65.64
3598;BME280;1813;52.016;8.714;2023-03-04T13:36:57;-16261.94;;;-139.71;65.23
3598;BME280;1813;52.016;8.714;2023-03-04T13:39:34;-16261.94;;;-139.71;64.41
3598;BME280;1813;52.016;8.714;2023-03-04T13:42:39;-16261.94;;;-139.71;64.05
3598;BME280;1813;52.016;8.714;2023-03-04T13:45:32;-16261.94;;;-139.71;63.81
3598;BME280;1813;52.016;8.714;2023-03-04T13:48:23;-16261.94;;;-139.71;64.19